createdAt,value
2022-12-05T00:02:10.301Z,1.00
2022-12-05T00:04:39.052Z,1.00
2022-12-05T00:07:08.913Z,1.00
2022-12-05T00:09:37.806Z,1.00
2022-12-05T00:12:06.840Z,99.90
2022-12-05T00:14:35.369Z,99.90
2022-12-05T00:17:03.996Z,1.00
2022-12-05T00:19:32.561Z,1.00
2022-12-05T00:22:01.033Z,1.00
2022-12-05T00:24:30.972Z,1.00
2022-12-05T00:26:59.506Z,1.00
2022-12-05T00:29:28.407Z,1.00
2022-12-05T00:31:56.953Z,1.00
2022-12-05T00:34:25.558Z,99.90
2022-12-05T00:36:54.025Z,99.90
2022-12-05T00:39:22.557Z,99.90
2022-12-05T00:41:52.417Z,99.90
2022-12-05T00:44:21.077Z,99.90
2022-12-05T00:46:49.639Z,99.90
2022-12-05T00:49:18.108Z,99.90
2022-12-05T00:52:06.622Z,99.90
2022-12-05T00:54:35.051Z,99.90
2022-12-05T00:57:05.013Z,99.90
2022-12-05T00:59:33.493Z,99.90
2022-12-05T01:02:01.921Z,99.90
2022-12-05T01:04:30.413Z,99.90
2022-12-05T01:07:00.000Z,99.90
2022-12-05T01:09:28.569Z,99.90
2022-12-05T01:11:57.070Z,99.90
2022-12-05T01:14:28.228Z,1.00
2022-12-05T01:16:58.108Z,99.90
2022-12-05T01:19:30.200Z,1.00
2022-12-05T01:21:59.028Z,1.00
2022-12-05T01:24:28.463Z,1.00
2022-12-05T01:26:57.645Z,1.00
2022-12-05T01:29:27.676Z,1.00
2022-12-05T01:31:56.447Z,1.00
2022-12-05T01:34:26.026Z,1.00
2022-12-05T01:36:54.443Z,1.00
2022-12-05T01:39:22.927Z,1.00
2022-12-05T01:41:51.801Z,1.00
2022-12-05T01:44:57.578Z,1.00
2022-12-05T01:47:30.184Z,1.00
2022-12-05T01:50:00.106Z,1.00
2022-12-05T01:52:31.093Z,1.00
2022-12-05T01:55:04.196Z,1.00
2022-12-05T01:57:33.257Z,1.00
2022-12-05T02:00:09.741Z,1.00
2022-12-05T02:02:44.153Z,1.00
2022-12-05T02:05:18.335Z,1.00
2022-12-05T02:07:47.765Z,1.00
2022-12-05T02:10:17.883Z,1.00
2022-12-05T02:12:46.674Z,1.00
2022-12-05T02:15:35.617Z,1.00
2022-12-05T02:18:19.343Z,1.00
2022-12-05T02:21:05.520Z,1.00
2022-12-05T02:24:02.892Z,99.90
2022-12-05T02:26:47.586Z,1.00
2022-12-05T02:29:42.836Z,1.00
2022-12-05T02:32:15.142Z,1.00
2022-12-05T02:34:49.088Z,99.90
2022-12-05T02:37:24.028Z,1.00
2022-12-05T02:39:57.976Z,99.90
2022-12-05T02:42:32.185Z,99.90
2022-12-05T02:48:01.850Z,1.00
2022-12-05T02:50:34.081Z,99.90
2022-12-05T02:53:06.529Z,99.90
2022-12-05T02:55:36.652Z,99.90
2022-12-05T02:58:10.261Z,99.90
2022-12-05T03:00:43.780Z,99.90
2022-12-05T03:03:16.557Z,99.90
2022-12-05T03:05:50.493Z,70.10
2022-12-05T03:08:23.337Z,99.90
2022-12-05T03:10:54.225Z,99.90
2022-12-05T03:13:27.839Z,96.30
2022-12-05T03:16:02.620Z,1.00
2022-12-05T03:18:34.659Z,99.90
2022-12-05T03:21:09.097Z,29.50
2022-12-05T03:23:43.407Z,1.00
2022-12-05T03:26:20.748Z,1.00
2022-12-05T03:28:58.676Z,1.00
2022-12-05T03:31:39.441Z,1.00
2022-12-05T03:34:13.884Z,1.00
2022-12-05T03:36:47.214Z,1.00
2022-12-05T03:39:24.157Z,1.00
2022-12-05T03:41:59.868Z,1.00
2022-12-05T03:44:35.782Z,1.00
2022-12-05T03:47:13.739Z,1.00
2022-12-05T03:49:46.912Z,1.00
2022-12-05T03:52:19.288Z,1.00
2022-12-05T03:54:51.327Z,1.00
2022-12-05T03:57:24.623Z,1.00
2022-12-05T03:59:57.836Z,1.00
2022-12-05T04:02:33.193Z,1.00
2022-12-05T04:05:05.205Z,99.90
2022-12-05T04:07:37.033Z,99.90
2022-12-05T04:10:12.047Z,99.90
2022-12-05T04:12:44.963Z,99.90
2022-12-05T04:15:18.223Z,99.90
2022-12-05T04:17:53.948Z,71.10
2022-12-05T04:20:45.804Z,1.00
2022-12-05T04:23:14.441Z,1.00
2022-12-05T04:25:51.293Z,1.00
2022-12-05T04:28:30.030Z,1.00
2022-12-05T04:31:05.527Z,1.00
2022-12-05T04:33:42.110Z,1.00
2022-12-05T04:36:15.345Z,1.00
2022-12-05T04:38:48.334Z,1.00
2022-12-05T04:41:20.485Z,1.00
2022-12-05T04:43:50.927Z,1.00
2022-12-05T04:46:23.245Z,1.00
2022-12-05T04:48:58.301Z,1.00
2022-12-05T04:51:30.095Z,1.00
2022-12-05T04:54:09.536Z,98.30
2022-12-05T04:56:40.369Z,99.90
2022-12-05T04:59:08.865Z,47.50
2022-12-05T05:01:42.623Z,1.00
2022-12-05T05:04:15.931Z,40.80
2022-12-05T05:06:44.890Z,99.90
2022-12-05T05:09:13.433Z,38.20
2022-12-05T05:11:41.963Z,99.90
2022-12-05T05:14:10.478Z,99.90
2022-12-05T05:16:40.491Z,99.90
2022-12-05T05:19:09.574Z,99.90
2022-12-05T05:21:41.328Z,99.90
2022-12-05T05:24:11.094Z,99.90
2022-12-05T05:26:41.950Z,99.90
2022-12-05T05:29:11.322Z,99.90
2022-12-05T05:31:40.600Z,99.90
2022-12-05T05:34:10.109Z,99.90
2022-12-05T05:36:40.511Z,99.90
2022-12-05T05:39:13.464Z,99.90
2022-12-05T05:41:42.637Z,18.90
2022-12-05T05:44:11.297Z,57.90
2022-12-05T05:46:39.770Z,98.10
2022-12-05T05:49:08.232Z,1.00
2022-12-05T05:51:36.688Z,1.00
2022-12-05T05:54:06.652Z,1.00
2022-12-05T05:56:35.172Z,1.00
2022-12-05T05:59:05.061Z,1.00
2022-12-05T06:01:33.681Z,1.00
2022-12-05T06:04:02.401Z,1.00
2022-12-05T06:06:31.105Z,1.00
2022-12-05T06:08:59.551Z,1.00
2022-12-05T06:11:29.892Z,1.00
2022-12-05T06:14:01.276Z,1.00
2022-12-05T06:16:30.932Z,1.00
2022-12-05T06:18:59.935Z,1.00
2022-12-05T06:21:29.122Z,1.00
2022-12-05T06:23:57.612Z,1.00
2022-12-05T06:26:26.437Z,99.90
2022-12-05T06:28:56.498Z,99.90
2022-12-05T06:31:31.160Z,1.00
2022-12-05T06:34:01.861Z,99.90
2022-12-05T06:36:31.031Z,99.90
2022-12-05T06:39:00.483Z,99.90
2022-12-05T06:41:29.664Z,1.00
2022-12-05T06:44:02.503Z,1.00
2022-12-05T06:46:31.686Z,99.90
2022-12-05T06:49:00.837Z,99.90
2022-12-05T06:51:29.315Z,99.90
2022-12-05T06:53:58.151Z,99.90
2022-12-05T06:56:26.700Z,99.90
2022-12-05T06:58:55.771Z,99.90
2022-12-05T07:01:41.672Z,1.00
2022-12-05T07:04:13.968Z,11.30
2022-12-05T07:06:48.721Z,10.10
2022-12-05T07:09:20.052Z,1.00
2022-12-05T07:11:49.210Z,1.00
2022-12-05T07:14:39.326Z,1.00
2022-12-05T07:17:08.396Z,1.00
2022-12-05T07:19:36.858Z,1.00
2022-12-05T07:22:07.434Z,1.00
2022-12-05T07:24:39.301Z,1.00
2022-12-05T07:27:07.855Z,1.00
2022-12-05T07:29:36.332Z,1.00
2022-12-05T07:32:04.985Z,1.00
2022-12-05T07:34:34.879Z,1.00
2022-12-05T07:37:03.449Z,1.00
2022-12-05T07:39:32.032Z,1.00
2022-12-05T07:42:00.468Z,1.00
2022-12-05T07:44:29.028Z,1.00
2022-12-05T07:46:57.518Z,1.00
2022-12-05T07:49:26.018Z,1.00
2022-12-05T07:51:55.928Z,1.00
2022-12-05T07:54:24.597Z,1.00
2022-12-05T07:56:53.156Z,1.00
2022-12-05T07:59:21.729Z,1.00
2022-12-05T08:01:50.354Z,1.00
2022-12-05T08:04:19.105Z,1.00
2022-12-05T08:06:47.570Z,1.00
2022-12-05T08:09:17.464Z,1.00
2022-12-05T08:11:50.994Z,1.00
2022-12-05T08:14:21.768Z,1.00
2022-12-05T08:16:50.390Z,1.00
2022-12-05T08:19:18.932Z,1.00
2022-12-05T08:21:47.513Z,1.00
2022-12-05T08:24:17.790Z,1.00
2022-12-05T08:26:46.344Z,99.90
2022-12-05T08:29:16.680Z,99.90
2022-12-05T08:31:48.281Z,99.90
2022-12-05T08:34:17.993Z,99.90
2022-12-05T08:36:47.313Z,99.90
2022-12-05T08:39:18.470Z,99.90
2022-12-05T08:41:48.238Z,99.90
2022-12-05T08:44:18.618Z,99.90
2022-12-05T08:46:50.148Z,99.90
2022-12-05T08:49:19.878Z,99.90
2022-12-05T08:51:48.429Z,1.00
2022-12-05T08:54:18.802Z,99.90
2022-12-05T08:56:47.475Z,99.90
2022-12-05T08:59:15.996Z,99.90
2022-12-05T09:01:44.520Z,99.90
2022-12-05T09:04:13.550Z,1.00
2022-12-05T09:06:42.459Z,99.90
2022-12-05T09:09:12.580Z,99.90
2022-12-05T09:11:46.764Z,99.90
2022-12-05T09:14:15.737Z,99.90
2022-12-05T09:16:47.541Z,99.90
2022-12-05T09:19:18.223Z,99.00
2022-12-05T09:21:46.721Z,40.00
2022-12-05T09:24:15.808Z,99.90
2022-12-05T09:26:45.865Z,99.90
2022-12-05T09:29:17.277Z,99.90
2022-12-05T09:31:47.418Z,4.60
2022-12-05T09:34:18.363Z,8.10
2022-12-05T09:36:55.805Z,1.00
2022-12-05T09:39:27.126Z,1.00
2022-12-05T09:42:18.436Z,99.90
2022-12-05T09:45:06.041Z,1.00
2022-12-05T09:47:43.150Z,1.00
2022-12-05T09:50:19.489Z,1.00
2022-12-05T09:52:59.658Z,1.00
2022-12-05T09:55:34.601Z,1.00
2022-12-05T09:58:06.469Z,1.00
2022-12-05T10:00:35.331Z,1.00
2022-12-05T10:03:14.006Z,1.00
2022-12-05T10:05:47.712Z,1.00
2022-12-05T10:08:23.185Z,1.00
2022-12-05T10:11:01.256Z,1.00
2022-12-05T10:13:44.092Z,1.00
2022-12-05T10:16:15.427Z,1.00
2022-12-05T10:18:48.150Z,1.00
2022-12-05T10:21:21.244Z,1.00
2022-12-05T10:23:58.296Z,1.00
2022-12-05T10:26:31.882Z,1.00
2022-12-05T10:29:12.507Z,1.00
2022-12-05T10:31:42.740Z,1.00
2022-12-05T10:34:18.185Z,1.00
2022-12-05T10:36:56.125Z,1.00
2022-12-05T10:39:24.760Z,1.00
2022-12-05T10:41:53.406Z,1.00
2022-12-05T10:44:23.348Z,1.00
2022-12-05T10:46:51.996Z,1.00
2022-12-05T10:49:21.388Z,1.00
2022-12-05T10:51:50.311Z,1.00
2022-12-05T10:54:23.761Z,1.00
2022-12-05T10:56:53.859Z,1.00
2022-12-05T10:59:25.257Z,1.00
2022-12-05T11:01:56.210Z,1.00
2022-12-05T11:04:29.942Z,1.00
2022-12-05T11:07:01.031Z,99.90
2022-12-05T11:09:32.316Z,1.00
2022-12-05T11:12:21.410Z,1.00
2022-12-05T11:15:07.372Z,1.00
2022-12-05T11:17:38.185Z,99.90
2022-12-05T11:20:29.956Z,99.90
2022-12-05T11:22:59.508Z,1.00
2022-12-05T11:25:32.419Z,99.90
2022-12-05T11:28:02.574Z,1.00
2022-12-05T11:30:32.406Z,1.00
2022-12-05T11:33:19.671Z,99.90
2022-12-05T11:35:49.250Z,1.00
2022-12-05T11:38:19.496Z,99.90
2022-12-05T11:40:54.687Z,1.00
2022-12-05T11:43:42.611Z,99.90
2022-12-05T11:46:26.427Z,99.90
2022-12-05T11:49:09.732Z,99.90
2022-12-05T11:51:41.310Z,99.90
2022-12-05T11:54:56.801Z,99.90
2022-12-05T11:57:27.931Z,99.90
2022-12-05T12:00:15.662Z,99.90
2022-12-05T12:03:17.671Z,99.90
2022-12-05T12:05:57.948Z,99.90
2022-12-05T12:08:29.984Z,99.90
2022-12-05T12:11:08.477Z,58.60
2022-12-05T12:13:51.004Z,99.90
2022-12-05T12:16:29.632Z,99.90
2022-12-05T12:19:22.804Z,99.90
2022-12-05T12:22:06.901Z,99.90
2022-12-05T12:24:48.111Z,99.90
2022-12-05T12:27:29.847Z,99.90
2022-12-05T12:30:07.540Z,96.50
2022-12-05T12:32:45.584Z,99.90
2022-12-05T12:35:31.762Z,99.90
2022-12-05T12:38:40.954Z,91.30
2022-12-05T12:41:18.805Z,99.90
2022-12-05T12:43:58.480Z,99.90
2022-12-05T12:46:39.414Z,99.90
2022-12-05T12:49:35.532Z,1.40
2022-12-05T12:52:06.480Z,99.90
2022-12-05T12:55:05.776Z,99.90
2022-12-05T12:57:49.216Z,99.90
2022-12-05T13:00:24.966Z,99.90
2022-12-05T13:03:02.858Z,78.50
2022-12-05T13:05:36.055Z,1.00
2022-12-05T13:08:12.681Z,1.00
2022-12-05T13:10:45.370Z,1.00
2022-12-05T13:13:19.298Z,1.00
2022-12-05T13:15:51.398Z,1.00
2022-12-05T13:18:22.398Z,99.90
2022-12-05T13:20:52.909Z,99.90
2022-12-05T13:23:24.349Z,1.00
2022-12-05T13:25:56.906Z,1.00
2022-12-05T13:28:31.286Z,1.00
2022-12-05T13:31:05.965Z,1.00
2022-12-05T13:33:37.496Z,1.00
2022-12-05T13:36:29.431Z,1.00
2022-12-05T13:39:17.618Z,1.00
2022-12-05T13:42:08.590Z,1.00
2022-12-05T13:44:43.696Z,1.00
2022-12-05T13:47:30.688Z,1.00
2022-12-05T13:50:09.886Z,1.00
2022-12-05T13:52:44.734Z,1.00
2022-12-05T13:55:35.605Z,99.90
2022-12-05T13:58:50.261Z,1.00
2022-12-05T14:01:53.769Z,1.00
2022-12-05T14:04:51.090Z,99.90
2022-12-05T14:07:40.904Z,99.90
2022-12-05T14:10:11.222Z,99.90
2022-12-05T14:12:52.922Z,99.90
2022-12-05T14:15:37.998Z,99.90
2022-12-05T14:18:14.258Z,99.90
2022-12-05T14:20:54.030Z,99.90
2022-12-05T14:23:55.348Z,99.90
2022-12-05T14:26:36.525Z,99.90
2022-12-05T14:29:35.561Z,99.90
2022-12-05T14:32:18.947Z,99.90
2022-12-05T14:34:58.431Z,99.90
2022-12-05T14:37:31.261Z,99.90
2022-12-05T14:40:01.762Z,98.80
2022-12-05T14:42:38.392Z,1.00
2022-12-05T14:45:28.215Z,1.00
2022-12-05T14:48:01.091Z,99.90
2022-12-05T14:50:45.168Z,1.00
2022-12-05T14:53:30.337Z,1.00
2022-12-05T14:56:06.014Z,1.00
2022-12-05T14:58:38.756Z,1.00
2022-12-05T15:01:14.908Z,1.00
2022-12-05T15:04:09.285Z,1.00
2022-12-05T15:06:47.362Z,1.00
2022-12-05T15:09:38.067Z,1.00
2022-12-05T15:12:13.151Z,1.00
2022-12-05T15:14:48.143Z,1.00
2022-12-05T15:17:22.984Z,1.00
2022-12-05T15:19:58.984Z,1.00
2022-12-05T15:22:36.564Z,1.00
2022-12-05T15:25:27.536Z,1.00
2022-12-05T15:27:58.841Z,1.00
2022-12-05T15:30:28.659Z,1.00
2022-12-05T15:32:59.656Z,1.00
2022-12-05T15:35:33.276Z,1.00
2022-12-05T15:38:05.783Z,1.00
2022-12-05T15:40:37.709Z,1.00
2022-12-05T15:43:29.459Z,1.00
2022-12-05T15:46:26.124Z,1.00
2022-12-05T15:48:56.129Z,1.00
2022-12-05T15:51:32.195Z,1.00
2022-12-05T15:54:07.365Z,1.00
2022-12-05T15:56:39.427Z,1.00
2022-12-05T15:59:14.218Z,1.00
2022-12-05T16:01:46.032Z,1.00
2022-12-05T16:04:22.590Z,1.00
2022-12-05T16:06:57.199Z,1.00
2022-12-05T16:09:32.311Z,1.00
2022-12-05T16:12:03.034Z,1.00
2022-12-05T16:17:24.430Z,1.00
2022-12-05T16:19:53.166Z,84.10
2022-12-05T16:22:29.090Z,1.00
2022-12-05T16:25:02.379Z,1.00
2022-12-05T16:27:36.674Z,1.00
2022-12-05T16:30:11.085Z,1.00
2022-12-05T16:32:40.291Z,1.00
2022-12-05T16:35:37.951Z,1.00
2022-12-05T16:38:13.153Z,1.00
2022-12-05T16:40:51.528Z,4.60
2022-12-05T16:43:25.414Z,1.00
2022-12-05T16:45:55.605Z,39.50
2022-12-05T16:48:26.022Z,10.20
2022-12-05T16:51:15.433Z,99.90
2022-12-05T16:53:46.615Z,66.10
2022-12-05T16:56:16.974Z,99.90
2022-12-05T16:58:45.773Z,99.90
2022-12-05T17:01:18.866Z,99.90
2022-12-05T17:03:47.678Z,99.90
2022-12-05T17:06:18.414Z,99.90
2022-12-05T17:08:48.895Z,97.70
2022-12-05T17:11:20.187Z,99.90
2022-12-05T17:13:49.721Z,99.90
2022-12-05T17:16:19.366Z,99.90
2022-12-05T17:18:48.303Z,99.90
2022-12-05T17:21:20.304Z,99.90
2022-12-05T17:23:50.624Z,99.90
2022-12-05T17:26:21.274Z,99.90
2022-12-05T17:28:50.777Z,1.00
2022-12-05T17:31:21.705Z,99.90
2022-12-05T17:33:52.025Z,99.90
2022-12-05T17:36:21.703Z,99.90
2022-12-05T17:38:51.691Z,90.80
2022-12-05T17:41:23.103Z,99.90
2022-12-05T17:43:52.388Z,93.20
2022-12-05T17:46:23.331Z,99.90
2022-12-05T17:48:53.279Z,32.90
2022-12-05T17:51:22.501Z,1.00
2022-12-05T17:53:53.108Z,99.90
2022-12-05T17:56:21.783Z,52.50
2022-12-05T17:58:50.832Z,99.90
2022-12-05T18:01:20.948Z,1.00
2022-12-05T18:03:50.347Z,1.00
2022-12-05T18:06:19.573Z,1.00
2022-12-05T18:08:48.039Z,1.00
2022-12-05T18:11:18.308Z,1.00
2022-12-05T18:13:46.784Z,1.00
2022-12-05T18:16:15.366Z,1.00
2022-12-05T18:18:43.928Z,1.00
2022-12-05T18:21:13.868Z,12.90
2022-12-05T18:23:43.362Z,1.00
2022-12-05T18:26:12.210Z,99.90
2022-12-05T18:28:42.150Z,1.00
2022-12-05T18:31:14.896Z,1.00
2022-12-05T18:33:44.768Z,1.00
2022-12-05T18:36:15.987Z,1.00
2022-12-05T18:38:49.858Z,9.50
2022-12-05T18:41:18.666Z,1.00
2022-12-05T18:43:48.526Z,1.00
2022-12-05T18:46:17.280Z,1.00
2022-12-05T18:48:47.957Z,1.00
2022-12-05T18:51:18.306Z,1.00
2022-12-05T18:53:52.376Z,1.00
2022-12-05T18:56:24.126Z,1.00
2022-12-05T18:58:59.561Z,1.00
2022-12-05T19:01:28.840Z,1.00
2022-12-05T19:03:58.307Z,1.00
2022-12-05T19:06:29.908Z,1.00
2022-12-05T19:09:01.477Z,1.00
2022-12-05T19:11:30.719Z,1.00
2022-12-05T19:14:02.567Z,1.00
2022-12-05T19:16:33.667Z,1.00
2022-12-05T19:19:03.568Z,1.00
2022-12-05T19:21:34.402Z,1.00
2022-12-05T19:24:04.025Z,1.00
2022-12-05T19:26:32.585Z,1.00
2022-12-05T19:29:02.482Z,1.00
2022-12-05T19:31:31.774Z,1.00
2022-12-05T19:34:01.596Z,1.00
2022-12-05T19:36:32.876Z,1.00
2022-12-05T19:39:01.402Z,1.00
2022-12-05T19:41:31.347Z,1.00
2022-12-05T19:44:00.748Z,1.00
2022-12-05T19:46:33.102Z,1.00
2022-12-05T19:49:27.530Z,1.00
2022-12-05T19:51:56.074Z,1.00
2022-12-05T19:54:24.694Z,1.00
2022-12-05T19:56:58.288Z,1.00
2022-12-05T19:59:26.925Z,1.00
2022-12-05T20:01:56.823Z,1.00
2022-12-05T20:04:25.571Z,1.00
2022-12-05T20:06:54.271Z,1.00
2022-12-05T20:09:23.641Z,1.00
2022-12-05T20:11:55.574Z,1.00
2022-12-05T20:14:25.910Z,1.00
2022-12-05T20:16:56.151Z,1.00
2022-12-05T20:19:24.935Z,1.00
2022-12-05T20:21:55.505Z,1.00
2022-12-05T20:24:23.989Z,1.00
2022-12-05T20:26:53.101Z,1.00
2022-12-05T20:29:21.573Z,1.00
2022-12-05T20:31:56.665Z,1.00
2022-12-05T20:34:26.747Z,1.00
2022-12-05T20:36:55.302Z,1.00
2022-12-05T20:39:24.892Z,1.00
2022-12-05T20:41:53.517Z,1.00
2022-12-05T20:44:22.480Z,1.00
2022-12-05T20:46:51.575Z,1.00
2022-12-05T20:49:20.779Z,1.00
2022-12-05T20:51:50.617Z,1.00
2022-12-05T20:54:19.178Z,1.00
2022-12-05T20:56:47.681Z,1.00
2022-12-05T20:59:16.286Z,1.00
2022-12-05T21:01:44.923Z,1.00
2022-12-05T21:04:14.019Z,1.00
2022-12-05T21:06:43.939Z,1.00
2022-12-05T21:09:18.726Z,1.00
2022-12-05T21:11:47.350Z,1.00
2022-12-05T21:14:15.880Z,1.00
2022-12-05T21:16:44.348Z,1.00
2022-12-05T21:19:12.832Z,1.00
2022-12-05T21:21:41.631Z,1.00
2022-12-05T21:24:11.354Z,1.00
2022-12-05T21:26:41.397Z,1.00
2022-12-05T21:29:10.747Z,1.00
2022-12-05T21:31:41.581Z,1.00
2022-12-05T21:34:15.342Z,1.00
2022-12-05T21:36:44.812Z,1.00
2022-12-05T21:39:13.416Z,1.00
2022-12-05T21:41:43.467Z,1.00
2022-12-05T21:44:11.919Z,1.00
2022-12-05T21:46:40.455Z,1.00
2022-12-05T21:49:09.112Z,1.00
2022-12-05T21:51:37.590Z,1.00
2022-12-05T21:54:06.219Z,1.00
2022-12-05T21:56:34.681Z,1.00
2022-12-05T21:59:04.626Z,1.00
2022-12-05T22:01:33.129Z,1.00
2022-12-05T22:04:01.785Z,1.00
2022-12-05T22:06:33.734Z,1.00
2022-12-05T22:09:02.778Z,1.00
2022-12-05T22:11:31.593Z,1.00
2022-12-05T22:14:00.070Z,1.00
2022-12-05T22:16:33.558Z,1.00
2022-12-05T22:19:03.013Z,1.00
2022-12-05T22:21:33.949Z,1.00
2022-12-05T22:24:02.935Z,1.00
2022-12-05T22:26:31.524Z,1.00
2022-12-05T22:29:00.050Z,1.00
2022-12-05T22:31:29.996Z,1.00
2022-12-05T22:33:58.538Z,1.00
2022-12-05T22:36:26.986Z,1.00
2022-12-05T22:38:55.405Z,1.00
2022-12-05T22:41:26.022Z,1.00
2022-12-05T22:43:56.912Z,1.00
2022-12-05T22:46:26.932Z,1.00
2022-12-05T22:48:58.448Z,59.50
2022-12-05T22:51:28.048Z,1.00
2022-12-05T22:53:56.939Z,1.00
2022-12-05T22:56:27.510Z,1.00
2022-12-05T22:58:57.277Z,1.00
2022-12-05T23:01:28.525Z,1.00
2022-12-05T23:03:59.960Z,1.00
2022-12-05T23:06:29.682Z,1.00
2022-12-05T23:08:59.021Z,1.00
2022-12-05T23:11:28.562Z,1.00
2022-12-05T23:14:01.624Z,20.10
2022-12-05T23:16:32.532Z,1.00
2022-12-05T23:19:04.867Z,1.00
2022-12-05T23:21:35.989Z,1.00
2022-12-05T23:24:06.661Z,99.90
2022-12-05T23:26:38.040Z,1.00
2022-12-05T23:29:06.519Z,1.00
2022-12-05T23:31:35.200Z,1.00
2022-12-05T23:34:06.132Z,1.00
2022-12-05T23:36:35.922Z,1.00
2022-12-05T23:39:05.569Z,1.00
2022-12-05T23:41:34.244Z,1.00
2022-12-05T23:44:02.839Z,1.00
2022-12-05T23:46:31.653Z,1.00
2022-12-05T23:49:00.470Z,1.00
2022-12-05T23:51:31.580Z,1.00
2022-12-05T23:54:02.607Z,1.00
2022-12-05T23:56:33.447Z,1.00
2022-12-05T23:59:03.071Z,1.00
